createdAt,value
2022-10-21T02:49:53.181Z,13.6
2022-10-21T03:46:04.130Z,10.8
2022-10-21T03:52:05.710Z,10.1
2022-10-21T04:10:47.834Z,10
2022-10-21T04:17:22.589Z,9.9
2022-10-21T04:23:26.043Z,9.3
2022-10-21T04:54:09.727Z,7.6
2022-10-21T05:00:16.002Z,8.1
2022-10-21T05:06:43.956Z,7.8
2022-10-21T05:31:29.174Z,8.6
2022-10-21T05:55:44.807Z,6.8
2022-10-21T06:21:04.000Z,6.6
2022-10-21T06:27:06.353Z,6.9
2022-10-21T06:33:32.490Z,6.4
2022-10-21T06:39:23.790Z,6.8
2022-10-21T07:03:59.867Z,7.1
2022-10-21T07:10:00.787Z,7.4
2022-10-21T07:22:45.297Z,8.4
2022-10-21T07:41:47.258Z,8
2022-10-21T07:47:43.806Z,8.2
2022-10-21T07:53:50.640Z,8
2022-10-21T07:59:57.819Z,8
2022-10-21T08:05:50.085Z,8.7
2022-10-21T08:11:56.513Z,8.6
2022-10-21T08:17:51.712Z,9.1
2022-10-21T08:24:00.838Z,9.2
2022-10-21T08:30:33.619Z,9.2
2022-10-21T08:49:24.166Z,8.5
2022-10-21T15:07:47.410Z,2.2
2022-10-21T15:13:43.251Z,2.1
2022-10-21T15:19:41.165Z,3
2022-10-21T15:31:38.355Z,2.7
2022-10-21T15:38:40.556Z,2.6
2022-10-21T15:44:39.997Z,3.5
2022-10-21T15:50:32.445Z,2.9
2022-10-21T15:56:37.960Z,3.2
2022-10-21T16:02:35.832Z,3.2
2022-10-21T16:08:36.834Z,4.4
2022-10-21T16:14:39.011Z,3.8
2022-10-21T16:20:31.390Z,3.2
2022-10-21T16:26:24.047Z,4.6
2022-10-21T16:32:17.577Z,3.8
2022-10-21T16:38:08.830Z,3.5
2022-10-21T16:44:02.131Z,3.4
2022-10-21T16:49:58.407Z,3.4
2022-10-21T16:55:50.217Z,3.4
2022-10-21T17:01:49.329Z,3.6
2022-10-21T17:14:15.357Z,3.4
2022-10-21T17:20:24.652Z,3.3
2022-10-21T17:26:28.818Z,2.9
2022-10-21T17:32:46.603Z,3.2
2022-10-21T17:38:49.752Z,3.9
2022-10-21T17:45:21.109Z,3.7
2022-10-21T17:51:14.643Z,4.5
2022-10-21T17:57:07.109Z,4.3
2022-10-21T18:03:05.435Z,4.7
2022-10-21T18:09:18.841Z,3.8
2022-10-21T18:15:24.871Z,5.3
2022-10-21T18:21:30.079Z,5.1
2022-10-21T18:27:50.578Z,4.9
2022-10-21T18:33:59.351Z,5.6
2022-10-21T18:39:58.093Z,6.6
2022-10-21T18:45:54.070Z,7.5
2022-10-21T18:51:50.945Z,7.1
2022-10-21T18:58:00.511Z,9.5
2022-10-21T19:03:58.881Z,18.4
2022-10-21T19:09:51.667Z,11
2022-10-21T19:16:01.384Z,13.9
2022-10-21T19:22:08.605Z,9.6
2022-10-21T19:28:01.205Z,7.8
2022-10-21T19:34:07.002Z,7.2
2022-10-21T19:40:16.071Z,8
2022-10-21T19:46:27.922Z,9
2022-10-21T19:52:23.054Z,9.2
2022-10-21T19:58:32.085Z,8.8
2022-10-21T20:10:51.226Z,11
2022-10-21T20:17:16.039Z,12.7
2022-10-21T20:30:03.513Z,9.2
2022-10-21T20:35:58.199Z,9.4
2022-10-21T20:42:22.537Z,8.9
2022-10-21T20:48:12.798Z,8.5
2022-10-21T20:54:03.633Z,8.7
2022-10-21T20:59:56.320Z,8.5
2022-10-21T21:05:50.462Z,11.3
2022-10-21T21:11:42.848Z,11.1
2022-10-21T21:17:36.353Z,10.5
2022-10-21T21:23:29.069Z,10.1
2022-10-21T21:29:25.103Z,9.7
2022-10-21T21:35:16.352Z,10.1
2022-10-21T21:41:19.351Z,13.6
2022-10-21T21:47:10.415Z,15.3
2022-10-21T21:53:04.362Z,13.8
2022-10-21T21:59:05.057Z,15
2022-10-21T22:05:01.813Z,13.7
2022-10-21T22:10:53.037Z,13.3
2022-10-21T22:16:50.443Z,13
2022-10-21T22:22:44.528Z,10.2
2022-10-21T22:28:48.139Z,10.6
2022-10-21T22:34:42.216Z,9
2022-10-21T22:40:34.990Z,9.7
2022-10-21T22:46:49.249Z,9.7
2022-10-21T22:52:55.068Z,10.3
2022-10-21T22:58:48.318Z,10.7
2022-10-21T23:04:39.159Z,10.9
2022-10-21T23:10:32.276Z,10.4
2022-10-21T23:16:27.336Z,10.7
2022-10-21T23:22:20.067Z,11.1
2022-10-21T23:28:12.245Z,10.5
2022-10-21T23:34:07.266Z,10.2
2022-10-21T23:40:00.033Z,10.5
2022-10-21T23:46:14.793Z,10.4
2022-10-21T23:52:06.556Z,10.7
2022-10-21T23:57:59.984Z,11.3
